createdAt,value
2022-10-18T00:04:08.499Z,17.65
2022-10-18T00:09:06.244Z,9.50
2022-10-18T00:14:05.756Z,13.20
2022-10-18T00:19:14.458Z,12.43
2022-10-18T00:24:15.211Z,11.50
2022-10-18T00:29:16.073Z,13.00
2022-10-18T00:34:16.797Z,10.98
2022-10-18T00:39:20.391Z,10.15
2022-10-18T00:44:57.516Z,10.82
2022-10-18T00:50:00.617Z,11.25
2022-10-18T00:55:02.877Z,10.48
2022-10-18T01:00:03.995Z,10.65
2022-10-18T01:05:00.934Z,11.40
2022-10-18T01:10:30.712Z,11.25
2022-10-18T01:15:43.970Z,9.23
2022-10-18T01:21:19.622Z,9.05
2022-10-18T01:26:34.448Z,11.07
2022-10-18T01:31:35.083Z,11.30
2022-10-18T01:36:35.782Z,11.57
2022-10-18T01:41:46.897Z,9.52
2022-10-18T01:46:45.949Z,9.77
2022-10-18T01:51:42.813Z,15.90
2022-10-18T01:56:47.588Z,9.63
2022-10-18T02:02:02.823Z,10.63
2022-10-18T02:07:07.382Z,8.83
2022-10-18T02:12:10.471Z,10.48
2022-10-18T02:17:12.040Z,12.32
2022-10-18T02:22:20.092Z,9.55
2022-10-18T02:27:17.236Z,9.50
2022-10-18T02:32:20.686Z,13.13
2022-10-18T02:37:18.161Z,9.88
2022-10-18T02:42:15.679Z,10.32
2022-10-18T02:47:20.420Z,12.43
2022-10-18T02:52:17.433Z,8.25
2022-10-18T02:57:19.566Z,12.73
2022-10-18T03:02:17.402Z,11.15
2022-10-18T03:07:21.170Z,10.10
2022-10-18T03:12:24.475Z,10.52
2022-10-18T03:17:25.225Z,9.77
2022-10-18T03:27:24.160Z,12.07
2022-10-18T03:32:30.281Z,11.07
2022-10-18T03:37:32.628Z,12.27
2022-10-18T03:42:32.323Z,11.85
2022-10-18T03:47:32.999Z,9.93
2022-10-18T03:52:30.322Z,14.65
2022-10-18T03:57:27.598Z,12.95
2022-10-18T04:02:25.207Z,10.07
2022-10-18T04:07:41.236Z,17.88
2022-10-18T04:17:47.343Z,19.25
2022-10-18T04:23:11.222Z,18.00
2022-10-18T04:28:51.618Z,18.80
2022-10-18T04:34:27.132Z,17.00
2022-10-18T04:39:27.729Z,18.05
2022-10-18T04:44:25.048Z,25.90
2022-10-18T04:49:22.245Z,21.67
2022-10-18T04:54:22.866Z,18.83
2022-10-18T04:59:33.885Z,17.95
2022-10-18T05:09:54.514Z,34.53
2022-10-18T05:14:53.303Z,18.27
2022-10-18T05:20:10.910Z,25.77
2022-10-18T05:25:21.320Z,27.13
2022-10-18T05:30:28.593Z,25.55
2022-10-18T05:35:28.453Z,27.52
2022-10-18T05:40:29.343Z,18.70
2022-10-18T05:45:33.281Z,33.30
2022-10-18T05:51:03.714Z,27.48
2022-10-18T05:56:03.546Z,34.60
2022-10-18T06:01:06.320Z,31.70
2022-10-18T06:06:23.525Z,26.63
2022-10-18T06:12:31.394Z,14.93
2022-10-18T06:18:09.730Z,15.57
2022-10-18T06:23:44.139Z,33.05
2022-10-18T06:28:41.570Z,24.63
2022-10-18T06:33:39.876Z,14.02
2022-10-18T06:38:36.965Z,21.10
2022-10-18T06:43:40.238Z,12.57
2022-10-18T06:48:41.750Z,15.55
2022-10-18T06:53:44.581Z,14.35
2022-10-18T06:59:22.975Z,16.00
2022-10-18T07:04:22.333Z,11.13
2022-10-18T07:09:25.519Z,15.65
2022-10-18T07:14:26.915Z,14.07
2022-10-18T07:19:26.687Z,10.75
2022-10-18T07:24:23.782Z,13.88
2022-10-18T07:29:25.931Z,15.32
2022-10-18T07:34:28.362Z,10.60
2022-10-18T07:39:42.850Z,16.55
2022-10-18T07:45:13.832Z,11.93
2022-10-18T07:50:52.608Z,9.90
2022-10-18T07:56:27.475Z,17.27
2022-10-18T08:01:27.724Z,8.80
2022-10-18T08:06:24.961Z,10.27
2022-10-18T08:11:26.065Z,13.02
2022-10-18T08:16:24.678Z,10.40
2022-10-18T08:21:21.772Z,10.13
2022-10-18T08:26:51.714Z,12.25
2022-10-18T08:32:11.889Z,9.88
2022-10-18T08:37:56.752Z,9.45
2022-10-18T08:43:03.421Z,8.85
2022-10-18T08:48:01.819Z,11.23
2022-10-18T08:53:06.270Z,9.52
2022-10-18T08:59:03.443Z,9.55
2022-10-18T09:04:35.011Z,11.93
2022-10-18T09:09:58.425Z,6.65
2022-10-18T09:15:17.709Z,10.20
2022-10-18T09:20:59.395Z,9.52
2022-10-18T09:26:40.281Z,10.55
2022-10-18T09:31:50.088Z,9.40
2022-10-18T09:36:51.175Z,11.00
2022-10-18T09:42:12.095Z,8.77
2022-10-18T09:47:17.145Z,9.23
2022-10-18T09:52:19.059Z,10.40
2022-10-18T09:57:48.452Z,9.25
2022-10-18T10:03:07.130Z,9.48
2022-10-18T10:58:33.334Z,11.32
2022-10-18T11:38:33.231Z,9.55
2022-10-18T12:13:28.039Z,9.52
2022-10-18T12:33:33.476Z,8.85
2022-10-18T13:13:57.525Z,5.18
2022-10-18T13:39:47.333Z,6.80
2022-10-18T15:16:36.522Z,12.70
2022-10-18T17:21:15.638Z,32.40
2022-10-18T20:12:02.591Z,24.80
2022-10-18T20:30:41.138Z,21.50
2022-10-18T20:37:03.703Z,24.17
2022-10-18T20:56:11.277Z,23.13
2022-10-18T21:03:02.473Z,26.55
2022-10-18T21:22:04.509Z,24.83
2022-10-18T21:28:00.906Z,28.00
2022-10-18T21:33:59.788Z,26.80
2022-10-18T21:47:41.377Z,26.63
2022-10-18T21:53:02.323Z,28.27
2022-10-18T21:59:48.178Z,34.58
2022-10-18T22:05:37.770Z,30.00
2022-10-18T22:12:22.265Z,27.50
2022-10-18T22:17:58.406Z,25.40
2022-10-18T22:28:33.464Z,23.88
2022-10-18T22:33:47.072Z,27.90
2022-10-18T22:39:08.210Z,24.20
2022-10-18T22:44:32.583Z,24.52
2022-10-18T22:50:06.506Z,26.30
2022-10-18T22:55:51.297Z,23.30
2022-10-18T23:07:53.503Z,23.80
2022-10-18T23:14:13.146Z,20.48
2022-10-18T23:20:14.372Z,17.73
2022-10-18T23:25:36.227Z,21.08
2022-10-18T23:37:12.929Z,24.17
2022-10-18T23:42:43.844Z,17.08
2022-10-18T23:53:45.184Z,20.00
